sensor_id;sensor_type;location;lat;lon;timestamp;pressure;altitude;pressure_sealevel;temperature;humidity
34979;BME280;21185;50.978;13.720;2023-05-10T00:00:05;97795.56;;;14.08;44.94
34979;BME280;21185;50.978;13.720;2023-05-10T00:05:13;97806.41;;;14.05;44.91
34979;BME280;21185;50.978;13.720;2023-05-10T00:10:16;97794.53;;;14.02;45.12
34979;BME280;21185;50.978;13.720;2023-05-10T00:15:18;97794.31;;;13.97;45.02
34979;BME280;21185;50.978;13.720;2023-05-10T00:20:20;97788.88;;;13.92;45.22
34979;BME280;21185;50.978;13.720;2023-05-10T00:25:22;97787.06;;;13.86;45.34
34979;BME280;21185;50.978;13.720;2023-05-10T00:30:24;97783.03;;;13.83;45.39
34979;BME280;21185;50.978;13.720;2023-05-10T00:35:26;97781.81;;;13.79;45.73
34979;BME280;21185;50.978;13.720;2023-05-10T00:40:28;97767.38;;;13.77;45.73
34979;BME280;21185;50.978;13.720;2023-05-10T00:45:35;97766.38;;;13.78;45.47
34979;BME280;21185;50.978;13.720;2023-05-10T00:50:39;97766.56;;;13.76;45.65
34979;BME280;21185;50.978;13.720;2023-05-10T00:55:42;97760.94;;;13.73;45.88
34979;BME280;21185;50.978;13.720;2023-05-10T01:00:46;97754.50;;;13.69;46.02
34979;BME280;21185;50.978;13.720;2023-05-10T01:05:49;97760.72;;;13.68;46.05
34979;BME280;21185;50.978;13.720;2023-05-10T01:10:52;97752.88;;;13.68;45.89
34979;BME280;21185;50.978;13.720;2023-05-10T01:15:54;97755.88;;;13.65;46.01
34979;BME280;21185;50.978;13.720;2023-05-10T01:26:45;97745.44;;;13.58;46.21
34979;BME280;21185;50.978;13.720;2023-05-10T01:37:07;97728.34;;;13.49;46.27
34979;BME280;21185;50.978;13.720;2023-05-10T01:42:17;97730.13;;;13.42;46.52
34979;BME280;21185;50.978;13.720;2023-05-10T01:48:10;97734.28;;;13.36;46.58
34979;BME280;21185;50.978;13.720;2023-05-10T01:52:55;97729.44;;;13.26;46.82
34979;BME280;21185;50.978;13.720;2023-05-10T01:58:06;97732.81;;;13.20;46.89
34979;BME280;21185;50.978;13.720;2023-05-10T02:03:10;97731.38;;;13.18;46.72
34979;BME280;21185;50.978;13.720;2023-05-10T02:08:15;97735.00;;;13.17;47.04
34979;BME280;21185;50.978;13.720;2023-05-10T02:13:18;97729.13;;;13.15;46.93
34979;BME280;21185;50.978;13.720;2023-05-10T02:18:22;97728.91;;;13.10;47.20
34979;BME280;21185;50.978;13.720;2023-05-10T02:23:25;97722.84;;;13.03;47.32
34979;BME280;21185;50.978;13.720;2023-05-10T02:28:28;97716.59;;;12.97;47.59
34979;BME280;21185;50.978;13.720;2023-05-10T02:33:31;97713.97;;;12.90;47.85
34979;BME280;21185;50.978;13.720;2023-05-10T02:38:34;97706.72;;;12.86;47.94
34979;BME280;21185;50.978;13.720;2023-05-10T02:43:39;97708.09;;;12.82;48.24
34979;BME280;21185;50.978;13.720;2023-05-10T02:48:42;97701.41;;;12.73;48.31
34979;BME280;21185;50.978;13.720;2023-05-10T02:53:46;97711.78;;;12.66;48.49
34979;BME280;21185;50.978;13.720;2023-05-10T02:58:49;97700.13;;;12.62;48.87
34979;BME280;21185;50.978;13.720;2023-05-10T03:03:51;97703.72;;;12.61;48.78
34979;BME280;21185;50.978;13.720;2023-05-10T03:08:53;97722.94;;;12.60;48.72
34979;BME280;21185;50.978;13.720;2023-05-10T03:19:54;97718.31;;;12.55;49.45
34979;BME280;21185;50.978;13.720;2023-05-10T03:24:58;97706.91;;;12.56;49.28
34979;BME280;21185;50.978;13.720;2023-05-10T03:30:05;97708.50;;;12.57;49.24
34979;BME280;21185;50.978;13.720;2023-05-10T03:35:11;97702.50;;;12.57;49.39
34979;BME280;21185;50.978;13.720;2023-05-10T03:40:15;97706.09;;;12.56;49.36
34979;BME280;21185;50.978;13.720;2023-05-10T03:45:18;97715.28;;;12.52;49.65
34979;BME280;21185;50.978;13.720;2023-05-10T03:50:20;97715.88;;;12.54;49.70
34979;BME280;21185;50.978;13.720;2023-05-10T03:55:25;97727.72;;;12.56;49.83
34979;BME280;21185;50.978;13.720;2023-05-10T04:00:27;97726.78;;;12.64;49.75
34979;BME280;21185;50.978;13.720;2023-05-10T04:05:30;97727.41;;;12.66;49.81
34979;BME280;21185;50.978;13.720;2023-05-10T04:10:32;97722.19;;;12.66;49.96
34979;BME280;21185;50.978;13.720;2023-05-10T04:15:34;97723.00;;;12.67;50.05
34979;BME280;21185;50.978;13.720;2023-05-10T04:20:37;97719.22;;;12.69;50.22
34979;BME280;21185;50.978;13.720;2023-05-10T04:25:39;97717.41;;;12.70;50.60
34979;BME280;21185;50.978;13.720;2023-05-10T04:30:43;97714.44;;;12.73;50.77
34979;BME280;21185;50.978;13.720;2023-05-10T04:35:45;97720.31;;;12.81;50.83
34979;BME280;21185;50.978;13.720;2023-05-10T04:40:47;97715.56;;;12.91;50.54
34979;BME280;21185;50.978;13.720;2023-05-10T04:45:50;97707.59;;;13.00;50.72
34979;BME280;21185;50.978;13.720;2023-05-10T04:50:52;97704.81;;;13.01;50.74
34979;BME280;21185;50.978;13.720;2023-05-10T04:55:54;97706.03;;;13.05;50.86
34979;BME280;21185;50.978;13.720;2023-05-10T05:00:56;97702.25;;;13.08;51.11
34979;BME280;21185;50.978;13.720;2023-05-10T05:05:59;97708.28;;;13.15;51.21
34979;BME280;21185;50.978;13.720;2023-05-10T05:11:02;97706.38;;;13.23;51.10
34979;BME280;21185;50.978;13.720;2023-05-10T05:16:05;97710.03;;;13.36;50.89
34979;BME280;21185;50.978;13.720;2023-05-10T05:21:17;97708.88;;;13.45;50.84
34979;BME280;21185;50.978;13.720;2023-05-10T05:26:20;97709.13;;;13.56;50.66
34979;BME280;21185;50.978;13.720;2023-05-10T05:31:22;97709.56;;;13.67;50.75
34979;BME280;21185;50.978;13.720;2023-05-10T05:36:24;97705.78;;;13.76;50.76
34979;BME280;21185;50.978;13.720;2023-05-10T05:41:27;97712.25;;;13.93;50.52
34979;BME280;21185;50.978;13.720;2023-05-10T05:46:28;97711.69;;;14.04;50.57
34979;BME280;21185;50.978;13.720;2023-05-10T05:51:30;97705.88;;;14.15;50.27
34979;BME280;21185;50.978;13.720;2023-05-10T05:56:32;97710.91;;;14.30;50.26
34979;BME280;21185;50.978;13.720;2023-05-10T06:01:34;97706.34;;;14.45;50.17
34979;BME280;21185;50.978;13.720;2023-05-10T06:06:36;97718.19;;;14.61;50.16
34979;BME280;21185;50.978;13.720;2023-05-10T06:11:38;97730.84;;;14.77;49.93
34979;BME280;21185;50.978;13.720;2023-05-10T06:16:40;97734.25;;;14.98;49.95
34979;BME280;21185;50.978;13.720;2023-05-10T06:21:42;97739.44;;;15.17;49.94
34979;BME280;21185;50.978;13.720;2023-05-10T06:26:44;97733.56;;;15.35;49.56
34979;BME280;21185;50.978;13.720;2023-05-10T06:31:46;97732.94;;;15.46;49.50
34979;BME280;21185;50.978;13.720;2023-05-10T06:36:48;97728.03;;;15.63;49.42
34979;BME280;21185;50.978;13.720;2023-05-10T06:41:50;97733.59;;;15.80;49.52
34979;BME280;21185;50.978;13.720;2023-05-10T06:46:54;97735.13;;;16.01;49.21
34979;BME280;21185;50.978;13.720;2023-05-10T06:51:57;97737.84;;;16.19;49.40
34979;BME280;21185;50.978;13.720;2023-05-10T06:56:59;97732.56;;;16.26;49.08
34979;BME280;21185;50.978;13.720;2023-05-10T07:02:04;97730.84;;;16.38;48.98
34979;BME280;21185;50.978;13.720;2023-05-10T07:07:07;97739.63;;;16.50;49.07
34979;BME280;21185;50.978;13.720;2023-05-10T07:12:09;97738.19;;;16.54;49.20
34979;BME280;21185;50.978;13.720;2023-05-10T07:17:15;97747.59;;;16.62;48.81
34979;BME280;21185;50.978;13.720;2023-05-10T07:22:17;97742.94;;;16.70;48.72
34979;BME280;21185;50.978;13.720;2023-05-10T07:27:19;97739.84;;;16.80;48.51
34979;BME280;21185;50.978;13.720;2023-05-10T07:32:21;97736.16;;;16.88;48.45
34979;BME280;21185;50.978;13.720;2023-05-10T07:37:23;97748.97;;;16.96;48.37
34979;BME280;21185;50.978;13.720;2023-05-10T07:42:25;97745.72;;;17.00;48.67
34979;BME280;21185;50.978;13.720;2023-05-10T07:47:27;97743.63;;;17.09;48.50
34979;BME280;21185;50.978;13.720;2023-05-10T07:52:29;97733.88;;;17.16;48.36
34979;BME280;21185;50.978;13.720;2023-05-10T07:57:31;97730.81;;;17.19;48.25
34979;BME280;21185;50.978;13.720;2023-05-10T08:02:34;97737.94;;;17.30;48.07
34979;BME280;21185;50.978;13.720;2023-05-10T08:07:37;97729.13;;;17.43;47.95
34979;BME280;21185;50.978;13.720;2023-05-10T08:12:39;97731.97;;;17.60;47.81
34979;BME280;21185;50.978;13.720;2023-05-10T08:17:41;97739.72;;;17.73;48.04
34979;BME280;21185;50.978;13.720;2023-05-10T08:22:45;97734.75;;;17.83;47.88
34979;BME280;21185;50.978;13.720;2023-05-10T08:27:47;97740.72;;;17.90;48.03
34979;BME280;21185;50.978;13.720;2023-05-10T08:32:49;97745.53;;;17.93;47.81
34979;BME280;21185;50.978;13.720;2023-05-10T08:37:51;97749.00;;;18.05;47.59
34979;BME280;21185;50.978;13.720;2023-05-10T08:43:12;97755.53;;;18.15;47.83
34979;BME280;21185;50.978;13.720;2023-05-10T08:48:17;97767.69;;;18.27;47.75
34979;BME280;21185;50.978;13.720;2023-05-10T08:53:19;97768.94;;;18.25;47.69
34979;BME280;21185;50.978;13.720;2023-05-10T08:58:22;97777.88;;;18.35;47.46
34979;BME280;21185;50.978;13.720;2023-05-10T09:03:24;97774.25;;;18.48;47.53
34979;BME280;21185;50.978;13.720;2023-05-10T09:08:26;97781.38;;;18.59;47.60
34979;BME280;21185;50.978;13.720;2023-05-10T09:13:29;97783.25;;;18.70;47.08
34979;BME280;21185;50.978;13.720;2023-05-10T09:18:31;97781.91;;;18.80;47.12
34979;BME280;21185;50.978;13.720;2023-05-10T09:23:33;97789.44;;;18.88;46.96
34979;BME280;21185;50.978;13.720;2023-05-10T09:28:54;97783.28;;;18.94;46.61
34979;BME280;21185;50.978;13.720;2023-05-10T09:33:56;97790.72;;;18.97;46.50
34979;BME280;21185;50.978;13.720;2023-05-10T09:38:58;97791.88;;;19.13;46.54
34979;BME280;21185;50.978;13.720;2023-05-10T09:44:00;97795.41;;;19.18;46.35
34979;BME280;21185;50.978;13.720;2023-05-10T09:49:02;97798.16;;;19.23;46.46
34979;BME280;21185;50.978;13.720;2023-05-10T09:54:15;97796.09;;;19.25;46.31
34979;BME280;21185;50.978;13.720;2023-05-10T09:59:18;97795.31;;;19.25;46.29
34979;BME280;21185;50.978;13.720;2023-05-10T10:04:20;97795.41;;;19.18;46.36
34979;BME280;21185;50.978;13.720;2023-05-10T10:09:23;97795.19;;;19.20;46.53
34979;BME280;21185;50.978;13.720;2023-05-10T10:14:26;97795.53;;;19.23;46.68
34979;BME280;21185;50.978;13.720;2023-05-10T10:19:27;97789.72;;;19.21;46.15
34979;BME280;21185;50.978;13.720;2023-05-10T10:24:30;97789.81;;;19.26;46.26
34979;BME280;21185;50.978;13.720;2023-05-10T10:29:41;97787.75;;;19.28;46.09
34979;BME280;21185;50.978;13.720;2023-05-10T10:34:47;97793.81;;;19.40;46.50
34979;BME280;21185;50.978;13.720;2023-05-10T10:39:49;97790.97;;;19.42;46.53
34979;BME280;21185;50.978;13.720;2023-05-10T10:45:11;97793.84;;;19.52;46.31
34979;BME280;21185;50.978;13.720;2023-05-10T10:50:13;97798.88;;;19.54;46.01
34979;BME280;21185;50.978;13.720;2023-05-10T10:55:19;97795.19;;;19.55;46.40
34979;BME280;21185;50.978;13.720;2023-05-10T11:00:28;97798.84;;;19.65;46.01
34979;BME280;21185;50.978;13.720;2023-05-10T11:05:49;97790.94;;;19.77;45.95
34979;BME280;21185;50.978;13.720;2023-05-10T11:21:19;97801.47;;;19.65;45.78
34979;BME280;21185;50.978;13.720;2023-05-10T11:26:23;97805.81;;;19.71;45.78
34979;BME280;21185;50.978;13.720;2023-05-10T11:31:27;97810.28;;;19.71;45.76
34979;BME280;21185;50.978;13.720;2023-05-10T11:36:35;97817.84;;;19.56;45.89
34979;BME280;21185;50.978;13.720;2023-05-10T11:41:37;97809.03;;;19.50;45.93
34979;BME280;21185;50.978;13.720;2023-05-10T11:46:43;97818.66;;;19.56;45.63
34979;BME280;21185;50.978;13.720;2023-05-10T11:51:45;97809.13;;;19.79;45.30
34979;BME280;21185;50.978;13.720;2023-05-10T11:56:49;97808.31;;;19.90;45.55
34979;BME280;21185;50.978;13.720;2023-05-10T12:01:51;97816.09;;;19.85;45.29
34979;BME280;21185;50.978;13.720;2023-05-10T12:06:53;97819.53;;;19.85;45.11
34979;BME280;21185;50.978;13.720;2023-05-10T12:11:56;97818.69;;;19.96;44.82
34979;BME280;21185;50.978;13.720;2023-05-10T12:17:00;97828.31;;;20.02;44.69
34979;BME280;21185;50.978;13.720;2023-05-10T12:22:05;97825.53;;;20.09;44.81
34979;BME280;21185;50.978;13.720;2023-05-10T12:27:10;97827.84;;;20.05;44.78
34979;BME280;21185;50.978;13.720;2023-05-10T12:32:13;97831.31;;;19.94;44.63
34979;BME280;21185;50.978;13.720;2023-05-10T12:37:15;97839.78;;;19.96;44.25
34979;BME280;21185;50.978;13.720;2023-05-10T12:42:17;97845.25;;;20.07;44.36
34979;BME280;21185;50.978;13.720;2023-05-10T12:47:19;97845.44;;;20.17;44.49
34979;BME280;21185;50.978;13.720;2023-05-10T12:52:21;97852.66;;;20.21;44.27
34979;BME280;21185;50.978;13.720;2023-05-10T12:57:23;97851.16;;;20.25;44.05
34979;BME280;21185;50.978;13.720;2023-05-10T13:02:25;97854.44;;;20.32;44.32
34979;BME280;21185;50.978;13.720;2023-05-10T13:07:27;97856.25;;;20.44;43.82
34979;BME280;21185;50.978;13.720;2023-05-10T13:12:29;97854.84;;;20.53;43.68
34979;BME280;21185;50.978;13.720;2023-05-10T13:17:31;97847.50;;;20.55;43.60
34979;BME280;21185;50.978;13.720;2023-05-10T13:22:35;97853.00;;;20.53;43.38
34979;BME280;21185;50.978;13.720;2023-05-10T13:27:41;97853.25;;;20.52;43.60
34979;BME280;21185;50.978;13.720;2023-05-10T13:32:43;97849.09;;;20.56;43.40
34979;BME280;21185;50.978;13.720;2023-05-10T13:37:45;97842.31;;;20.60;43.59
34979;BME280;21185;50.978;13.720;2023-05-10T13:42:47;97839.88;;;20.70;43.45
34979;BME280;21185;50.978;13.720;2023-05-10T13:47:49;97848.50;;;20.82;43.23
34979;BME280;21185;50.978;13.720;2023-05-10T13:52:51;97839.38;;;20.90;42.94
34979;BME280;21185;50.978;13.720;2023-05-10T13:57:52;97829.06;;;20.88;43.04
34979;BME280;21185;50.978;13.720;2023-05-10T14:02:55;97834.44;;;20.93;43.18
34979;BME280;21185;50.978;13.720;2023-05-10T14:07:57;97832.13;;;20.97;42.92
34979;BME280;21185;50.978;13.720;2023-05-10T14:12:59;97823.97;;;20.98;43.51
34979;BME280;21185;50.978;13.720;2023-05-10T14:18:01;97826.28;;;20.95;43.37
34979;BME280;21185;50.978;13.720;2023-05-10T14:23:03;97830.81;;;20.83;43.05
34979;BME280;21185;50.978;13.720;2023-05-10T14:28:05;97830.78;;;20.78;43.15
34979;BME280;21185;50.978;13.720;2023-05-10T14:33:07;97822.53;;;20.74;43.14
34979;BME280;21185;50.978;13.720;2023-05-10T14:38:09;97819.09;;;20.74;42.83
34979;BME280;21185;50.978;13.720;2023-05-10T14:43:12;97822.31;;;20.76;42.89
34979;BME280;21185;50.978;13.720;2023-05-10T14:48:14;97828.06;;;20.73;42.96
34979;BME280;21185;50.978;13.720;2023-05-10T14:53:18;97815.44;;;20.75;43.24
34979;BME280;21185;50.978;13.720;2023-05-10T14:58:20;97826.53;;;20.77;43.16
34979;BME280;21185;50.978;13.720;2023-05-10T15:03:22;97824.69;;;20.77;42.82
34979;BME280;21185;50.978;13.720;2023-05-10T15:08:25;97836.03;;;20.61;44.25
34979;BME280;21185;50.978;13.720;2023-05-10T15:13:27;97833.59;;;20.43;45.84
34979;BME280;21185;50.978;13.720;2023-05-10T15:18:29;97837.16;;;20.25;46.04
34979;BME280;21185;50.978;13.720;2023-05-10T15:23:31;97844.31;;;20.13;46.80
34979;BME280;21185;50.978;13.720;2023-05-10T15:28:33;97844.66;;;20.04;46.90
34979;BME280;21185;50.978;13.720;2023-05-10T15:33:37;97845.50;;;19.93;47.26
34979;BME280;21185;50.978;13.720;2023-05-10T15:38:40;97844.50;;;19.83;47.49
34979;BME280;21185;50.978;13.720;2023-05-10T15:43:42;97854.00;;;19.72;47.20
34979;BME280;21185;50.978;13.720;2023-05-10T15:48:44;97849.31;;;19.62;47.22
34979;BME280;21185;50.978;13.720;2023-05-10T15:53:46;97845.19;;;19.55;47.13
34979;BME280;21185;50.978;13.720;2023-05-10T15:59:07;97857.88;;;19.46;47.27
34979;BME280;21185;50.978;13.720;2023-05-10T16:04:11;97856.38;;;19.38;47.51
34979;BME280;21185;50.978;13.720;2023-05-10T16:09:13;97862.34;;;19.34;47.24
34979;BME280;21185;50.978;13.720;2023-05-10T16:14:16;97862.44;;;19.27;47.68
34979;BME280;21185;50.978;13.720;2023-05-10T16:19:18;97867.69;;;19.27;47.69
34979;BME280;21185;50.978;13.720;2023-05-10T16:24:20;97871.38;;;19.26;47.71
34979;BME280;21185;50.978;13.720;2023-05-10T16:29:22;97870.34;;;19.27;48.01
34979;BME280;21185;50.978;13.720;2023-05-10T16:34:24;97868.28;;;19.29;47.93
34979;BME280;21185;50.978;13.720;2023-05-10T16:39:28;97887.25;;;19.31;47.57
34979;BME280;21185;50.978;13.720;2023-05-10T16:44:30;97886.59;;;19.36;47.55
34979;BME280;21185;50.978;13.720;2023-05-10T16:49:35;97875.25;;;19.35;47.56
34979;BME280;21185;50.978;13.720;2023-05-10T16:54:41;97887.25;;;19.31;47.38
34979;BME280;21185;50.978;13.720;2023-05-10T16:59:43;97897.44;;;19.28;47.61
34979;BME280;21185;50.978;13.720;2023-05-10T17:04:45;97903.72;;;19.27;47.74
34979;BME280;21185;50.978;13.720;2023-05-10T17:09:47;97901.56;;;19.24;47.50
34979;BME280;21185;50.978;13.720;2023-05-10T17:14:49;97907.38;;;19.26;47.85
34979;BME280;21185;50.978;13.720;2023-05-10T17:19:51;97909.22;;;19.25;47.52
34979;BME280;21185;50.978;13.720;2023-05-10T17:24:53;97913.91;;;19.23;47.96
34979;BME280;21185;50.978;13.720;2023-05-10T17:29:56;97915.97;;;19.21;48.51
34979;BME280;21185;50.978;13.720;2023-05-10T17:34:58;97916.19;;;19.20;49.09
34979;BME280;21185;50.978;13.720;2023-05-10T17:40:00;97920.06;;;19.17;49.17
34979;BME280;21185;50.978;13.720;2023-05-10T17:45:05;97928.41;;;19.14;49.54
34979;BME280;21185;50.978;13.720;2023-05-10T17:50:08;97935.94;;;19.11;49.76
34979;BME280;21185;50.978;13.720;2023-05-10T17:55:11;97937.63;;;19.05;50.15
34979;BME280;21185;50.978;13.720;2023-05-10T18:00:14;97935.91;;;18.99;50.09
34979;BME280;21185;50.978;13.720;2023-05-10T18:05:17;97935.78;;;18.94;50.40
34979;BME280;21185;50.978;13.720;2023-05-10T18:10:19;97945.34;;;18.88;50.49
34979;BME280;21185;50.978;13.720;2023-05-10T18:15:21;97949.91;;;18.81;50.49
34979;BME280;21185;50.978;13.720;2023-05-10T18:20:23;97951.00;;;18.73;50.92
34979;BME280;21185;50.978;13.720;2023-05-10T18:25:25;97953.50;;;18.68;51.01
34979;BME280;21185;50.978;13.720;2023-05-10T18:30:27;97954.38;;;18.62;51.11
34979;BME280;21185;50.978;13.720;2023-05-10T18:35:29;97953.41;;;18.57;51.56
34979;BME280;21185;50.978;13.720;2023-05-10T18:40:31;97962.97;;;18.51;51.72
34979;BME280;21185;50.978;13.720;2023-05-10T18:45:33;97972.31;;;18.47;51.84
34979;BME280;21185;50.978;13.720;2023-05-10T18:50:37;97969.13;;;18.45;51.97
34979;BME280;21185;50.978;13.720;2023-05-10T18:55:39;97977.66;;;18.40;52.14
34979;BME280;21185;50.978;13.720;2023-05-10T19:00:41;97981.16;;;18.34;51.96
34979;BME280;21185;50.978;13.720;2023-05-10T19:05:44;97990.91;;;18.27;52.37
34979;BME280;21185;50.978;13.720;2023-05-10T19:10:47;97989.38;;;18.20;52.65
34979;BME280;21185;50.978;13.720;2023-05-10T19:16:19;98000.16;;;18.11;52.79
34979;BME280;21185;50.978;13.720;2023-05-10T19:21:25;98002.66;;;18.06;52.78
34979;BME280;21185;50.978;13.720;2023-05-10T19:26:27;98012.78;;;18.03;52.98
34979;BME280;21185;50.978;13.720;2023-05-10T19:31:29;98010.78;;;17.98;52.77
34979;BME280;21185;50.978;13.720;2023-05-10T19:36:31;98021.72;;;17.95;52.97
34979;BME280;21185;50.978;13.720;2023-05-10T19:41:34;98016.31;;;17.90;53.20
34979;BME280;21185;50.978;13.720;2023-05-10T19:46:37;98023.00;;;17.86;53.43
34979;BME280;21185;50.978;13.720;2023-05-10T19:51:40;98019.44;;;17.80;53.73
34979;BME280;21185;50.978;13.720;2023-05-10T19:56:42;98012.41;;;17.74;53.54
34979;BME280;21185;50.978;13.720;2023-05-10T20:01:44;98020.53;;;17.66;53.86
34979;BME280;21185;50.978;13.720;2023-05-10T20:06:46;98027.25;;;17.56;53.79
34979;BME280;21185;50.978;13.720;2023-05-10T20:11:49;98021.25;;;17.48;54.18
34979;BME280;21185;50.978;13.720;2023-05-10T20:16:51;98019.47;;;17.42;54.29
34979;BME280;21185;50.978;13.720;2023-05-10T20:21:52;98018.50;;;17.37;54.30
34979;BME280;21185;50.978;13.720;2023-05-10T20:26:56;98015.31;;;17.28;54.62
34979;BME280;21185;50.978;13.720;2023-05-10T20:31:59;98024.63;;;17.24;54.52
34979;BME280;21185;50.978;13.720;2023-05-10T20:37:01;98017.81;;;17.16;54.95
34979;BME280;21185;50.978;13.720;2023-05-10T20:42:04;98022.06;;;17.11;55.17
34979;BME280;21185;50.978;13.720;2023-05-10T20:47:06;98027.13;;;17.06;55.21
34979;BME280;21185;50.978;13.720;2023-05-10T20:52:09;98031.19;;;17.02;55.45
34979;BME280;21185;50.978;13.720;2023-05-10T20:57:11;98023.75;;;16.99;55.53
34979;BME280;21185;50.978;13.720;2023-05-10T21:02:13;98025.19;;;16.95;55.58
34979;BME280;21185;50.978;13.720;2023-05-10T21:07:15;98023.19;;;16.90;55.66
34979;BME280;21185;50.978;13.720;2023-05-10T21:12:17;98029.25;;;16.84;55.71
34979;BME280;21185;50.978;13.720;2023-05-10T21:17:19;98023.44;;;16.75;55.93
34979;BME280;21185;50.978;13.720;2023-05-10T21:22:21;98032.13;;;16.69;56.12
34979;BME280;21185;50.978;13.720;2023-05-10T21:27:23;98040.59;;;16.65;55.99
34979;BME280;21185;50.978;13.720;2023-05-10T21:32:25;98036.75;;;16.61;56.05
34979;BME280;21185;50.978;13.720;2023-05-10T21:37:27;98040.81;;;16.57;56.55
34979;BME280;21185;50.978;13.720;2023-05-10T21:42:29;98036.19;;;16.52;56.31
34979;BME280;21185;50.978;13.720;2023-05-10T21:47:32;98029.75;;;16.48;56.45
34979;BME280;21185;50.978;13.720;2023-05-10T21:52:35;98038.22;;;16.43;56.57
34979;BME280;21185;50.978;13.720;2023-05-10T21:57:37;98044.88;;;16.39;56.57
34979;BME280;21185;50.978;13.720;2023-05-10T22:02:39;98041.88;;;16.29;56.82
34979;BME280;21185;50.978;13.720;2023-05-10T22:07:41;98045.91;;;16.25;56.69
34979;BME280;21185;50.978;13.720;2023-05-10T22:12:43;98046.31;;;16.22;56.89
34979;BME280;21185;50.978;13.720;2023-05-10T22:17:45;98050.13;;;16.19;57.00
34979;BME280;21185;50.978;13.720;2023-05-10T22:22:47;98042.91;;;16.15;56.93
34979;BME280;21185;50.978;13.720;2023-05-10T22:27:49;98048.75;;;16.10;57.30
34979;BME280;21185;50.978;13.720;2023-05-10T22:32:51;98038.88;;;16.06;57.31
34979;BME280;21185;50.978;13.720;2023-05-10T22:37:53;98040.69;;;16.05;57.41
34979;BME280;21185;50.978;13.720;2023-05-10T22:42:55;98053.16;;;16.03;57.40
34979;BME280;21185;50.978;13.720;2023-05-10T22:47:58;98046.53;;;16.01;57.48
34979;BME280;21185;50.978;13.720;2023-05-10T22:53:00;98046.53;;;16.01;57.70
34979;BME280;21185;50.978;13.720;2023-05-10T22:58:02;98049.16;;;16.01;57.69
34979;BME280;21185;50.978;13.720;2023-05-10T23:03:04;98048.34;;;16.00;57.88
34979;BME280;21185;50.978;13.720;2023-05-10T23:08:07;98043.09;;;16.00;57.93
34979;BME280;21185;50.978;13.720;2023-05-10T23:13:09;98047.13;;;16.03;57.95
34979;BME280;21185;50.978;13.720;2023-05-10T23:18:11;98048.94;;;16.02;58.08
34979;BME280;21185;50.978;13.720;2023-05-10T23:23:14;98049.34;;;15.99;57.95
34979;BME280;21185;50.978;13.720;2023-05-10T23:28:16;98048.13;;;15.95;58.42
34979;BME280;21185;50.978;13.720;2023-05-10T23:33:18;98049.53;;;15.91;58.42
34979;BME280;21185;50.978;13.720;2023-05-10T23:38:20;98049.94;;;15.88;58.48
34979;BME280;21185;50.978;13.720;2023-05-10T23:43:22;98047.13;;;15.83;58.39
34979;BME280;21185;50.978;13.720;2023-05-10T23:48:25;98050.94;;;15.74;58.75
34979;BME280;21185;50.978;13.720;2023-05-10T23:53:27;98047.53;;;15.67;58.58
34979;BME280;21185;50.978;13.720;2023-05-10T23:58:29;98044.50;;;15.57;58.66
